sensor_id;sensor_type;location;lat;lon;timestamp;P1;durP1;ratioP1;P2;durP2;ratioP2
61385;SDS011;47256;18.904;-99.054;2024-03-07T00:00:13;15.85;;;6.47;;
61385;SDS011;47256;18.904;-99.054;2024-03-07T00:02:44;9.10;;;5.45;;
61385;SDS011;47256;18.904;-99.054;2024-03-07T00:05:16;8.50;;;6.03;;
61385;SDS011;47256;18.904;-99.054;2024-03-07T00:07:45;16.15;;;7.50;;
61385;SDS011;47256;18.904;-99.054;2024-03-07T00:10:12;20.70;;;6.60;;
61385;SDS011;47256;18.904;-99.054;2024-03-07T00:12:41;15.38;;;6.93;;
61385;SDS011;47256;18.904;-99.054;2024-03-07T00:15:11;25.50;;;7.78;;
61385;SDS011;47256;18.904;-99.054;2024-03-07T00:17:43;15.02;;;6.68;;
61385;SDS011;47256;18.904;-99.054;2024-03-07T00:20:10;13.13;;;6.47;;
61385;SDS011;47256;18.904;-99.054;2024-03-07T00:22:41;11.73;;;6.35;;
61385;SDS011;47256;18.904;-99.054;2024-03-07T00:25:09;12.00;;;6.95;;
61385;SDS011;47256;18.904;-99.054;2024-03-07T00:27:37;21.33;;;7.88;;
61385;SDS011;47256;18.904;-99.054;2024-03-07T00:30:11;63.22;;;23.15;;
61385;SDS011;47256;18.904;-99.054;2024-03-07T00:32:39;84.90;;;35.85;;
61385;SDS011;47256;18.904;-99.054;2024-03-07T00:35:08;72.63;;;35.63;;
61385;SDS011;47256;18.904;-99.054;2024-03-07T00:37:35;98.10;;;38.85;;
61385;SDS011;47256;18.904;-99.054;2024-03-07T00:40:06;94.00;;;36.15;;
61385;SDS011;47256;18.904;-99.054;2024-03-07T00:42:34;99.03;;;36.65;;
61385;SDS011;47256;18.904;-99.054;2024-03-07T00:45:03;73.53;;;29.40;;
61385;SDS011;47256;18.904;-99.054;2024-03-07T00:47:32;70.40;;;27.75;;
61385;SDS011;47256;18.904;-99.054;2024-03-07T00:50:00;55.95;;;23.38;;
61385;SDS011;47256;18.904;-99.054;2024-03-07T00:52:28;37.15;;;17.70;;
61385;SDS011;47256;18.904;-99.054;2024-03-07T00:54:55;46.22;;;14.10;;
61385;SDS011;47256;18.904;-99.054;2024-03-07T00:57:22;26.88;;;9.85;;
61385;SDS011;47256;18.904;-99.054;2024-03-07T00:59:49;26.70;;;9.15;;
61385;SDS011;47256;18.904;-99.054;2024-03-07T01:02:17;27.02;;;10.73;;
61385;SDS011;47256;18.904;-99.054;2024-03-07T01:04:46;25.60;;;9.77;;
61385;SDS011;47256;18.904;-99.054;2024-03-07T01:07:14;32.22;;;10.20;;
61385;SDS011;47256;18.904;-99.054;2024-03-07T01:09:42;26.52;;;9.43;;
61385;SDS011;47256;18.904;-99.054;2024-03-07T01:12:09;24.02;;;9.98;;
61385;SDS011;47256;18.904;-99.054;2024-03-07T01:14:38;20.50;;;10.38;;
61385;SDS011;47256;18.904;-99.054;2024-03-07T01:17:05;30.88;;;10.57;;
61385;SDS011;47256;18.904;-99.054;2024-03-07T01:19:35;28.30;;;12.25;;
61385;SDS011;47256;18.904;-99.054;2024-03-07T01:22:03;41.25;;;12.25;;
61385;SDS011;47256;18.904;-99.054;2024-03-07T01:24:31;40.30;;;13.95;;
61385;SDS011;47256;18.904;-99.054;2024-03-07T01:27:00;35.53;;;12.70;;
61385;SDS011;47256;18.904;-99.054;2024-03-07T01:29:28;37.03;;;13.50;;
61385;SDS011;47256;18.904;-99.054;2024-03-07T01:31:56;48.13;;;15.13;;
61385;SDS011;47256;18.904;-99.054;2024-03-07T01:34:24;35.45;;;13.18;;
61385;SDS011;47256;18.904;-99.054;2024-03-07T01:36:52;39.83;;;15.20;;
61385;SDS011;47256;18.904;-99.054;2024-03-07T01:39:19;39.17;;;14.32;;
61385;SDS011;47256;18.904;-99.054;2024-03-07T01:41:51;34.47;;;14.85;;
61385;SDS011;47256;18.904;-99.054;2024-03-07T01:44:18;24.83;;;14.32;;
61385;SDS011;47256;18.904;-99.054;2024-03-07T01:46:46;29.00;;;13.70;;
61385;SDS011;47256;18.904;-99.054;2024-03-07T01:49:22;26.25;;;12.90;;
61385;SDS011;47256;18.904;-99.054;2024-03-07T01:51:50;50.50;;;27.08;;
61385;SDS011;47256;18.904;-99.054;2024-03-07T01:54:18;39.75;;;22.55;;
61385;SDS011;47256;18.904;-99.054;2024-03-07T01:56:46;53.03;;;28.55;;
61385;SDS011;47256;18.904;-99.054;2024-03-07T01:59:14;70.10;;;39.97;;
61385;SDS011;47256;18.904;-99.054;2024-03-07T02:01:42;56.00;;;32.25;;
61385;SDS011;47256;18.904;-99.054;2024-03-07T02:04:13;41.83;;;19.30;;
61385;SDS011;47256;18.904;-99.054;2024-03-07T02:06:40;23.48;;;14.75;;
61385;SDS011;47256;18.904;-99.054;2024-03-07T02:09:08;45.45;;;20.33;;
61385;SDS011;47256;18.904;-99.054;2024-03-07T02:11:35;26.98;;;15.38;;
61385;SDS011;47256;18.904;-99.054;2024-03-07T02:14:02;26.95;;;14.20;;
61385;SDS011;47256;18.904;-99.054;2024-03-07T02:16:29;28.25;;;12.75;;
61385;SDS011;47256;18.904;-99.054;2024-03-07T02:18:57;34.67;;;13.10;;
61385;SDS011;47256;18.904;-99.054;2024-03-07T02:21:29;36.53;;;13.10;;
61385;SDS011;47256;18.904;-99.054;2024-03-07T02:23:58;35.20;;;15.02;;
61385;SDS011;47256;18.904;-99.054;2024-03-07T02:26:25;36.83;;;15.10;;
61385;SDS011;47256;18.904;-99.054;2024-03-07T02:28:55;43.42;;;17.98;;
61385;SDS011;47256;18.904;-99.054;2024-03-07T02:31:22;46.13;;;21.42;;
61385;SDS011;47256;18.904;-99.054;2024-03-07T02:34:01;68.22;;;36.10;;
61385;SDS011;47256;18.904;-99.054;2024-03-07T02:36:29;59.95;;;31.05;;
61385;SDS011;47256;18.904;-99.054;2024-03-07T02:38:57;57.55;;;32.90;;
61385;SDS011;47256;18.904;-99.054;2024-03-07T02:41:25;55.22;;;25.30;;
61385;SDS011;47256;18.904;-99.054;2024-03-07T02:43:53;84.15;;;41.55;;
61385;SDS011;47256;18.904;-99.054;2024-03-07T02:46:21;74.70;;;35.33;;
61385;SDS011;47256;18.904;-99.054;2024-03-07T02:48:49;55.17;;;22.85;;
61385;SDS011;47256;18.904;-99.054;2024-03-07T02:51:16;41.83;;;20.98;;
61385;SDS011;47256;18.904;-99.054;2024-03-07T02:53:45;65.65;;;29.67;;
61385;SDS011;47256;18.904;-99.054;2024-03-07T02:56:12;52.22;;;23.40;;
61385;SDS011;47256;18.904;-99.054;2024-03-07T02:58:41;61.58;;;31.33;;
61385;SDS011;47256;18.904;-99.054;2024-03-07T03:01:08;52.20;;;22.98;;
61385;SDS011;47256;18.904;-99.054;2024-03-07T03:03:37;43.50;;;18.63;;
61385;SDS011;47256;18.904;-99.054;2024-03-07T03:06:08;54.97;;;24.58;;
61385;SDS011;47256;18.904;-99.054;2024-03-07T03:08:35;46.47;;;20.58;;
61385;SDS011;47256;18.904;-99.054;2024-03-07T03:11:03;46.72;;;18.17;;
61385;SDS011;47256;18.904;-99.054;2024-03-07T03:13:40;42.30;;;19.02;;
61385;SDS011;47256;18.904;-99.054;2024-03-07T03:16:08;32.85;;;13.95;;
61385;SDS011;47256;18.904;-99.054;2024-03-07T03:18:37;34.40;;;13.95;;
61385;SDS011;47256;18.904;-99.054;2024-03-07T03:21:05;32.47;;;14.00;;
61385;SDS011;47256;18.904;-99.054;2024-03-07T03:23:32;37.72;;;15.57;;
61385;SDS011;47256;18.904;-99.054;2024-03-07T03:26:02;36.10;;;14.80;;
61385;SDS011;47256;18.904;-99.054;2024-03-07T03:28:31;36.60;;;14.98;;
61385;SDS011;47256;18.904;-99.054;2024-03-07T03:30:59;37.63;;;15.70;;
61385;SDS011;47256;18.904;-99.054;2024-03-07T03:33:30;33.65;;;15.65;;
61385;SDS011;47256;18.904;-99.054;2024-03-07T03:35:58;41.85;;;14.98;;
61385;SDS011;47256;18.904;-99.054;2024-03-07T03:38:25;41.45;;;16.90;;
61385;SDS011;47256;18.904;-99.054;2024-03-07T03:40:55;41.47;;;16.08;;
61385;SDS011;47256;18.904;-99.054;2024-03-07T03:43:22;43.60;;;16.73;;
61385;SDS011;47256;18.904;-99.054;2024-03-07T03:45:49;33.03;;;15.48;;
61385;SDS011;47256;18.904;-99.054;2024-03-07T03:48:17;40.53;;;15.35;;
61385;SDS011;47256;18.904;-99.054;2024-03-07T03:50:45;47.88;;;18.33;;
61385;SDS011;47256;18.904;-99.054;2024-03-07T03:53:13;39.75;;;16.67;;
61385;SDS011;47256;18.904;-99.054;2024-03-07T03:55:42;93.47;;;46.75;;
61385;SDS011;47256;18.904;-99.054;2024-03-07T03:58:10;137.88;;;65.85;;
61385;SDS011;47256;18.904;-99.054;2024-03-07T04:00:39;111.75;;;55.58;;
61385;SDS011;47256;18.904;-99.054;2024-03-07T04:03:06;101.05;;;48.30;;
61385;SDS011;47256;18.904;-99.054;2024-03-07T04:05:35;89.90;;;43.95;;
61385;SDS011;47256;18.904;-99.054;2024-03-07T04:08:02;90.72;;;42.08;;
61385;SDS011;47256;18.904;-99.054;2024-03-07T04:10:32;81.00;;;39.05;;
61385;SDS011;47256;18.904;-99.054;2024-03-07T04:13:00;68.45;;;32.63;;
61385;SDS011;47256;18.904;-99.054;2024-03-07T04:15:27;52.03;;;27.52;;
61385;SDS011;47256;18.904;-99.054;2024-03-07T04:17:58;79.22;;;37.00;;
61385;SDS011;47256;18.904;-99.054;2024-03-07T04:20:25;79.70;;;38.70;;
61385;SDS011;47256;18.904;-99.054;2024-03-07T04:22:54;74.30;;;35.88;;
61385;SDS011;47256;18.904;-99.054;2024-03-07T04:25:21;67.40;;;35.25;;
61385;SDS011;47256;18.904;-99.054;2024-03-07T04:27:51;67.05;;;31.23;;
61385;SDS011;47256;18.904;-99.054;2024-03-07T04:30:18;44.55;;;23.08;;
61385;SDS011;47256;18.904;-99.054;2024-03-07T04:32:47;60.28;;;30.77;;
61385;SDS011;47256;18.904;-99.054;2024-03-07T04:35:15;66.53;;;30.67;;
61385;SDS011;47256;18.904;-99.054;2024-03-07T04:37:43;58.85;;;31.70;;
61385;SDS011;47256;18.904;-99.054;2024-03-07T04:40:11;78.55;;;32.88;;
61385;SDS011;47256;18.904;-99.054;2024-03-07T04:42:45;58.88;;;28.48;;
61385;SDS011;47256;18.904;-99.054;2024-03-07T04:45:15;59.80;;;26.98;;
61385;SDS011;47256;18.904;-99.054;2024-03-07T04:47:42;82.15;;;35.70;;
61385;SDS011;47256;18.904;-99.054;2024-03-07T04:50:12;80.60;;;38.10;;
61385;SDS011;47256;18.904;-99.054;2024-03-07T04:52:43;66.85;;;30.98;;
61385;SDS011;47256;18.904;-99.054;2024-03-07T04:55:11;66.35;;;31.27;;
61385;SDS011;47256;18.904;-99.054;2024-03-07T04:57:40;60.85;;;27.45;;
61385;SDS011;47256;18.904;-99.054;2024-03-07T05:00:08;59.78;;;25.88;;
61385;SDS011;47256;18.904;-99.054;2024-03-07T05:02:41;54.22;;;25.25;;
61385;SDS011;47256;18.904;-99.054;2024-03-07T05:05:09;47.00;;;23.85;;
61385;SDS011;47256;18.904;-99.054;2024-03-07T05:07:37;51.78;;;24.10;;
61385;SDS011;47256;18.904;-99.054;2024-03-07T05:10:06;52.63;;;25.33;;
61385;SDS011;47256;18.904;-99.054;2024-03-07T05:12:36;51.15;;;21.90;;
61385;SDS011;47256;18.904;-99.054;2024-03-07T05:15:04;46.45;;;21.77;;
61385;SDS011;47256;18.904;-99.054;2024-03-07T05:17:32;55.60;;;21.67;;
61385;SDS011;47256;18.904;-99.054;2024-03-07T05:20:01;40.88;;;19.92;;
61385;SDS011;47256;18.904;-99.054;2024-03-07T05:22:29;42.08;;;18.02;;
61385;SDS011;47256;18.904;-99.054;2024-03-07T05:24:56;35.30;;;17.63;;
61385;SDS011;47256;18.904;-99.054;2024-03-07T05:27:30;52.72;;;17.17;;
61385;SDS011;47256;18.904;-99.054;2024-03-07T05:29:59;33.63;;;17.45;;
61385;SDS011;47256;18.904;-99.054;2024-03-07T05:32:27;44.25;;;17.73;;
61385;SDS011;47256;18.904;-99.054;2024-03-07T05:34:54;32.47;;;14.57;;
61385;SDS011;47256;18.904;-99.054;2024-03-07T05:37:22;35.03;;;14.75;;
61385;SDS011;47256;18.904;-99.054;2024-03-07T05:39:50;38.33;;;16.17;;
61385;SDS011;47256;18.904;-99.054;2024-03-07T05:42:19;25.45;;;13.88;;
61385;SDS011;47256;18.904;-99.054;2024-03-07T05:44:47;45.70;;;15.43;;
61385;SDS011;47256;18.904;-99.054;2024-03-07T05:47:14;31.25;;;13.95;;
61385;SDS011;47256;18.904;-99.054;2024-03-07T05:49:42;41.60;;;17.90;;
61385;SDS011;47256;18.904;-99.054;2024-03-07T05:52:12;43.33;;;18.65;;
61385;SDS011;47256;18.904;-99.054;2024-03-07T05:54:40;37.90;;;16.73;;
61385;SDS011;47256;18.904;-99.054;2024-03-07T05:57:09;38.38;;;15.75;;
61385;SDS011;47256;18.904;-99.054;2024-03-07T05:59:38;39.28;;;18.05;;
61385;SDS011;47256;18.904;-99.054;2024-03-07T06:02:06;33.25;;;15.10;;
61385;SDS011;47256;18.904;-99.054;2024-03-07T06:04:34;30.10;;;15.43;;
61385;SDS011;47256;18.904;-99.054;2024-03-07T06:07:01;30.73;;;14.55;;
61385;SDS011;47256;18.904;-99.054;2024-03-07T06:09:29;21.58;;;12.70;;
61385;SDS011;47256;18.904;-99.054;2024-03-07T06:11:57;30.38;;;13.73;;
61385;SDS011;47256;18.904;-99.054;2024-03-07T06:14:24;27.33;;;13.60;;
61385;SDS011;47256;18.904;-99.054;2024-03-07T06:16:51;33.38;;;16.52;;
61385;SDS011;47256;18.904;-99.054;2024-03-07T06:19:19;30.42;;;13.63;;
61385;SDS011;47256;18.904;-99.054;2024-03-07T06:21:46;35.55;;;14.18;;
61385;SDS011;47256;18.904;-99.054;2024-03-07T06:24:14;31.45;;;14.40;;
61385;SDS011;47256;18.904;-99.054;2024-03-07T06:26:43;33.72;;;13.70;;
61385;SDS011;47256;18.904;-99.054;2024-03-07T06:29:17;26.88;;;13.00;;
61385;SDS011;47256;18.904;-99.054;2024-03-07T06:31:44;26.73;;;11.48;;
61385;SDS011;47256;18.904;-99.054;2024-03-07T06:34:12;49.40;;;13.98;;
61385;SDS011;47256;18.904;-99.054;2024-03-07T06:36:40;29.17;;;13.48;;
61385;SDS011;47256;18.904;-99.054;2024-03-07T06:39:08;47.45;;;14.23;;
61385;SDS011;47256;18.904;-99.054;2024-03-07T06:41:37;33.58;;;13.77;;
61385;SDS011;47256;18.904;-99.054;2024-03-07T06:44:06;34.03;;;13.13;;
61385;SDS011;47256;18.904;-99.054;2024-03-07T06:46:35;29.83;;;13.38;;
61385;SDS011;47256;18.904;-99.054;2024-03-07T06:49:06;32.17;;;12.80;;
61385;SDS011;47256;18.904;-99.054;2024-03-07T06:51:36;28.10;;;12.55;;
61385;SDS011;47256;18.904;-99.054;2024-03-07T06:54:06;22.45;;;13.07;;
61385;SDS011;47256;18.904;-99.054;2024-03-07T06:56:34;22.20;;;11.18;;
61385;SDS011;47256;18.904;-99.054;2024-03-07T06:59:02;28.50;;;12.05;;
61385;SDS011;47256;18.904;-99.054;2024-03-07T07:01:30;22.88;;;12.15;;
61385;SDS011;47256;18.904;-99.054;2024-03-07T07:03:59;25.73;;;13.13;;
61385;SDS011;47256;18.904;-99.054;2024-03-07T07:06:29;27.85;;;13.55;;
61385;SDS011;47256;18.904;-99.054;2024-03-07T07:08:57;26.45;;;12.38;;
61385;SDS011;47256;18.904;-99.054;2024-03-07T07:11:24;47.13;;;14.55;;
61385;SDS011;47256;18.904;-99.054;2024-03-07T07:13:53;68.68;;;15.00;;
61385;SDS011;47256;18.904;-99.054;2024-03-07T07:16:20;46.03;;;13.77;;
61385;SDS011;47256;18.904;-99.054;2024-03-07T07:18:47;45.97;;;13.07;;
61385;SDS011;47256;18.904;-99.054;2024-03-07T07:21:15;29.65;;;13.30;;
61385;SDS011;47256;18.904;-99.054;2024-03-07T07:23:42;31.65;;;13.13;;
61385;SDS011;47256;18.904;-99.054;2024-03-07T07:26:09;32.88;;;13.05;;
61385;SDS011;47256;18.904;-99.054;2024-03-07T07:28:38;26.83;;;12.65;;
61385;SDS011;47256;18.904;-99.054;2024-03-07T07:31:07;23.52;;;12.82;;
61385;SDS011;47256;18.904;-99.054;2024-03-07T07:33:35;30.10;;;12.55;;
61385;SDS011;47256;18.904;-99.054;2024-03-07T07:36:02;21.30;;;11.70;;
61385;SDS011;47256;18.904;-99.054;2024-03-07T07:38:31;19.10;;;11.07;;
61385;SDS011;47256;18.904;-99.054;2024-03-07T07:40:59;25.23;;;11.40;;
61385;SDS011;47256;18.904;-99.054;2024-03-07T07:43:27;22.38;;;11.30;;
61385;SDS011;47256;18.904;-99.054;2024-03-07T07:45:55;31.08;;;10.85;;
61385;SDS011;47256;18.904;-99.054;2024-03-07T07:48:26;25.50;;;10.77;;
61385;SDS011;47256;18.904;-99.054;2024-03-07T07:50:53;30.63;;;11.07;;
61385;SDS011;47256;18.904;-99.054;2024-03-07T07:53:22;26.83;;;10.15;;
61385;SDS011;47256;18.904;-99.054;2024-03-07T07:55:49;25.73;;;9.80;;
61385;SDS011;47256;18.904;-99.054;2024-03-07T07:58:17;19.42;;;9.70;;
61385;SDS011;47256;18.904;-99.054;2024-03-07T08:00:44;15.70;;;8.85;;
61385;SDS011;47256;18.904;-99.054;2024-03-07T08:03:16;19.63;;;9.63;;
61385;SDS011;47256;18.904;-99.054;2024-03-07T08:05:48;15.77;;;9.20;;
61385;SDS011;47256;18.904;-99.054;2024-03-07T08:08:15;17.48;;;9.35;;
61385;SDS011;47256;18.904;-99.054;2024-03-07T08:10:44;19.48;;;9.68;;
61385;SDS011;47256;18.904;-99.054;2024-03-07T08:13:11;19.23;;;9.02;;
61385;SDS011;47256;18.904;-99.054;2024-03-07T08:15:40;22.92;;;9.73;;
61385;SDS011;47256;18.904;-99.054;2024-03-07T08:18:07;18.92;;;9.70;;
61385;SDS011;47256;18.904;-99.054;2024-03-07T08:20:35;19.33;;;10.45;;
61385;SDS011;47256;18.904;-99.054;2024-03-07T08:23:02;24.27;;;10.68;;
61385;SDS011;47256;18.904;-99.054;2024-03-07T08:25:29;32.90;;;11.60;;
61385;SDS011;47256;18.904;-99.054;2024-03-07T08:27:57;19.67;;;10.80;;
61385;SDS011;47256;18.904;-99.054;2024-03-07T08:30:25;22.48;;;11.00;;
61385;SDS011;47256;18.904;-99.054;2024-03-07T08:32:55;16.20;;;10.38;;
61385;SDS011;47256;18.904;-99.054;2024-03-07T08:35:23;22.02;;;11.02;;
61385;SDS011;47256;18.904;-99.054;2024-03-07T08:37:52;20.75;;;11.63;;
61385;SDS011;47256;18.904;-99.054;2024-03-07T08:40:21;25.13;;;11.07;;
61385;SDS011;47256;18.904;-99.054;2024-03-07T08:42:50;25.23;;;11.70;;
61385;SDS011;47256;18.904;-99.054;2024-03-07T08:45:23;22.65;;;11.75;;
61385;SDS011;47256;18.904;-99.054;2024-03-07T08:47:53;24.40;;;12.23;;
61385;SDS011;47256;18.904;-99.054;2024-03-07T08:50:23;26.50;;;11.02;;
61385;SDS011;47256;18.904;-99.054;2024-03-07T08:52:52;22.77;;;11.60;;
61385;SDS011;47256;18.904;-99.054;2024-03-07T08:55:23;28.58;;;12.65;;
61385;SDS011;47256;18.904;-99.054;2024-03-07T08:57:56;24.23;;;11.70;;
61385;SDS011;47256;18.904;-99.054;2024-03-07T09:00:23;31.52;;;12.80;;
61385;SDS011;47256;18.904;-99.054;2024-03-07T09:02:53;25.55;;;12.50;;
61385;SDS011;47256;18.904;-99.054;2024-03-07T09:05:25;35.75;;;12.27;;
61385;SDS011;47256;18.904;-99.054;2024-03-07T09:07:53;27.42;;;11.15;;
61385;SDS011;47256;18.904;-99.054;2024-03-07T09:10:21;25.25;;;12.40;;
61385;SDS011;47256;18.904;-99.054;2024-03-07T09:12:51;26.08;;;12.00;;
61385;SDS011;47256;18.904;-99.054;2024-03-07T09:15:21;21.85;;;12.13;;
61385;SDS011;47256;18.904;-99.054;2024-03-07T09:17:50;22.20;;;11.50;;
61385;SDS011;47256;18.904;-99.054;2024-03-07T09:20:17;27.67;;;12.25;;
61385;SDS011;47256;18.904;-99.054;2024-03-07T09:22:46;25.08;;;11.48;;
61385;SDS011;47256;18.904;-99.054;2024-03-07T09:25:14;23.77;;;12.18;;
61385;SDS011;47256;18.904;-99.054;2024-03-07T09:27:46;26.42;;;12.80;;
61385;SDS011;47256;18.904;-99.054;2024-03-07T09:30:14;25.15;;;12.13;;
61385;SDS011;47256;18.904;-99.054;2024-03-07T09:32:45;25.02;;;12.10;;
61385;SDS011;47256;18.904;-99.054;2024-03-07T09:35:12;26.83;;;11.38;;
61385;SDS011;47256;18.904;-99.054;2024-03-07T09:37:41;18.10;;;11.20;;
61385;SDS011;47256;18.904;-99.054;2024-03-07T09:40:10;21.73;;;11.35;;
61385;SDS011;47256;18.904;-99.054;2024-03-07T09:42:44;24.05;;;10.93;;
61385;SDS011;47256;18.904;-99.054;2024-03-07T09:45:17;28.52;;;11.63;;
61385;SDS011;47256;18.904;-99.054;2024-03-07T09:47:47;23.40;;;10.45;;
61385;SDS011;47256;18.904;-99.054;2024-03-07T09:50:18;25.88;;;11.50;;
61385;SDS011;47256;18.904;-99.054;2024-03-07T09:52:50;18.27;;;10.25;;
61385;SDS011;47256;18.904;-99.054;2024-03-07T09:55:19;21.98;;;10.63;;
61385;SDS011;47256;18.904;-99.054;2024-03-07T09:57:47;24.77;;;11.52;;
61385;SDS011;47256;18.904;-99.054;2024-03-07T10:00:17;19.48;;;11.40;;
61385;SDS011;47256;18.904;-99.054;2024-03-07T10:03:01;21.25;;;10.25;;
61385;SDS011;47256;18.904;-99.054;2024-03-07T10:05:34;24.20;;;10.73;;
61385;SDS011;47256;18.904;-99.054;2024-03-07T10:08:03;30.02;;;10.95;;
61385;SDS011;47256;18.904;-99.054;2024-03-07T10:10:31;20.23;;;10.90;;
61385;SDS011;47256;18.904;-99.054;2024-03-07T10:12:59;21.02;;;11.68;;
61385;SDS011;47256;18.904;-99.054;2024-03-07T10:15:31;21.85;;;10.18;;
61385;SDS011;47256;18.904;-99.054;2024-03-07T10:18:00;15.02;;;10.68;;
61385;SDS011;47256;18.904;-99.054;2024-03-07T10:20:27;19.42;;;11.50;;
61385;SDS011;47256;18.904;-99.054;2024-03-07T10:22:54;24.65;;;10.27;;
61385;SDS011;47256;18.904;-99.054;2024-03-07T10:25:27;18.15;;;9.18;;
61385;SDS011;47256;18.904;-99.054;2024-03-07T10:27:54;17.13;;;10.57;;
61385;SDS011;47256;18.904;-99.054;2024-03-07T10:30:28;20.30;;;9.75;;
61385;SDS011;47256;18.904;-99.054;2024-03-07T10:32:59;20.17;;;10.27;;
61385;SDS011;47256;18.904;-99.054;2024-03-07T10:35:29;21.35;;;9.80;;
61385;SDS011;47256;18.904;-99.054;2024-03-07T10:37:56;21.40;;;10.40;;
61385;SDS011;47256;18.904;-99.054;2024-03-07T10:40:33;19.00;;;10.63;;
61385;SDS011;47256;18.904;-99.054;2024-03-07T10:43:09;17.40;;;9.77;;
61385;SDS011;47256;18.904;-99.054;2024-03-07T10:45:47;23.25;;;11.32;;
61385;SDS011;47256;18.904;-99.054;2024-03-07T10:48:19;15.45;;;8.85;;
61385;SDS011;47256;18.904;-99.054;2024-03-07T10:50:54;16.95;;;8.80;;
61385;SDS011;47256;18.904;-99.054;2024-03-07T10:53:51;23.05;;;8.85;;
61385;SDS011;47256;18.904;-99.054;2024-03-07T10:59:16;21.08;;;8.93;;
61385;SDS011;47256;18.904;-99.054;2024-03-07T11:01:45;18.58;;;8.82;;
61385;SDS011;47256;18.904;-99.054;2024-03-07T11:04:27;12.70;;;8.27;;
61385;SDS011;47256;18.904;-99.054;2024-03-07T11:06:55;14.43;;;7.82;;
61385;SDS011;47256;18.904;-99.054;2024-03-07T11:09:26;15.23;;;8.02;;
61385;SDS011;47256;18.904;-99.054;2024-03-07T11:11:59;17.52;;;8.85;;
61385;SDS011;47256;18.904;-99.054;2024-03-07T11:14:29;20.55;;;7.93;;
61385;SDS011;47256;18.904;-99.054;2024-03-07T11:16:57;17.70;;;8.48;;
61385;SDS011;47256;18.904;-99.054;2024-03-07T11:19:27;24.85;;;8.77;;
61385;SDS011;47256;18.904;-99.054;2024-03-07T11:21:59;16.58;;;8.80;;
61385;SDS011;47256;18.904;-99.054;2024-03-07T11:24:30;15.90;;;8.30;;
61385;SDS011;47256;18.904;-99.054;2024-03-07T11:27:03;17.98;;;8.35;;
61385;SDS011;47256;18.904;-99.054;2024-03-07T11:32:12;17.85;;;7.65;;
61385;SDS011;47256;18.904;-99.054;2024-03-07T11:34:41;28.02;;;7.93;;
61385;SDS011;47256;18.904;-99.054;2024-03-07T11:37:18;13.05;;;8.95;;
61385;SDS011;47256;18.904;-99.054;2024-03-07T11:39:49;15.98;;;8.90;;
61385;SDS011;47256;18.904;-99.054;2024-03-07T11:45:00;13.80;;;8.13;;
61385;SDS011;47256;18.904;-99.054;2024-03-07T11:47:37;26.33;;;10.07;;
61385;SDS011;47256;18.904;-99.054;2024-03-07T11:50:06;15.27;;;8.57;;
61385;SDS011;47256;18.904;-99.054;2024-03-07T11:52:40;29.15;;;9.73;;
61385;SDS011;47256;18.904;-99.054;2024-03-07T11:55:12;15.07;;;8.80;;
61385;SDS011;47256;18.904;-99.054;2024-03-07T11:57:41;15.77;;;9.07;;
61385;SDS011;47256;18.904;-99.054;2024-03-07T12:00:12;15.82;;;8.75;;
61385;SDS011;47256;18.904;-99.054;2024-03-07T12:02:42;17.60;;;9.50;;
61385;SDS011;47256;18.904;-99.054;2024-03-07T12:05:10;14.48;;;7.93;;
61385;SDS011;47256;18.904;-99.054;2024-03-07T12:07:41;17.00;;;9.02;;
61385;SDS011;47256;18.904;-99.054;2024-03-07T12:10:09;17.75;;;7.70;;
61385;SDS011;47256;18.904;-99.054;2024-03-07T12:12:37;15.65;;;8.18;;
61385;SDS011;47256;18.904;-99.054;2024-03-07T12:15:05;15.38;;;7.65;;
61385;SDS011;47256;18.904;-99.054;2024-03-07T12:17:41;21.80;;;8.02;;
61385;SDS011;47256;18.904;-99.054;2024-03-07T12:20:09;16.42;;;7.30;;
61385;SDS011;47256;18.904;-99.054;2024-03-07T12:22:56;19.95;;;7.90;;
61385;SDS011;47256;18.904;-99.054;2024-03-07T12:25:30;21.70;;;8.20;;
61385;SDS011;47256;18.904;-99.054;2024-03-07T12:28:06;24.70;;;9.90;;
61385;SDS011;47256;18.904;-99.054;2024-03-07T12:33:21;24.40;;;8.82;;
61385;SDS011;47256;18.904;-99.054;2024-03-07T12:35:53;15.25;;;7.50;;
61385;SDS011;47256;18.904;-99.054;2024-03-07T12:38:41;19.17;;;8.70;;
61385;SDS011;47256;18.904;-99.054;2024-03-07T12:44:01;28.60;;;9.23;;
61385;SDS011;47256;18.904;-99.054;2024-03-07T12:46:30;21.40;;;9.07;;
61385;SDS011;47256;18.904;-99.054;2024-03-07T12:48:59;40.75;;;8.85;;
61385;SDS011;47256;18.904;-99.054;2024-03-07T12:51:27;25.08;;;9.43;;
61385;SDS011;47256;18.904;-99.054;2024-03-07T12:53:55;21.70;;;9.05;;
61385;SDS011;47256;18.904;-99.054;2024-03-07T12:56:23;23.65;;;9.65;;
61385;SDS011;47256;18.904;-99.054;2024-03-07T12:58:51;26.52;;;9.18;;
61385;SDS011;47256;18.904;-99.054;2024-03-07T13:01:21;28.88;;;9.90;;
61385;SDS011;47256;18.904;-99.054;2024-03-07T13:03:48;24.48;;;9.63;;
61385;SDS011;47256;18.904;-99.054;2024-03-07T13:06:17;25.08;;;10.15;;
61385;SDS011;47256;18.904;-99.054;2024-03-07T13:08:55;26.08;;;9.18;;
61385;SDS011;47256;18.904;-99.054;2024-03-07T13:11:25;24.95;;;9.88;;
61385;SDS011;47256;18.904;-99.054;2024-03-07T13:13:56;40.17;;;10.23;;
61385;SDS011;47256;18.904;-99.054;2024-03-07T13:16:23;26.15;;;9.35;;
61385;SDS011;47256;18.904;-99.054;2024-03-07T13:18:53;31.67;;;10.27;;
61385;SDS011;47256;18.904;-99.054;2024-03-07T13:21:21;38.20;;;10.15;;
61385;SDS011;47256;18.904;-99.054;2024-03-07T13:23:50;43.25;;;10.88;;
61385;SDS011;47256;18.904;-99.054;2024-03-07T13:26:20;20.60;;;9.25;;
61385;SDS011;47256;18.904;-99.054;2024-03-07T13:28:50;44.85;;;11.65;;
61385;SDS011;47256;18.904;-99.054;2024-03-07T13:31:20;28.30;;;10.77;;
61385;SDS011;47256;18.904;-99.054;2024-03-07T13:33:49;20.65;;;10.77;;
61385;SDS011;47256;18.904;-99.054;2024-03-07T13:36:18;24.58;;;10.27;;
61385;SDS011;47256;18.904;-99.054;2024-03-07T13:41:24;68.10;;;31.77;;
61385;SDS011;47256;18.904;-99.054;2024-03-07T13:43:54;140.13;;;65.07;;
61385;SDS011;47256;18.904;-99.054;2024-03-07T13:46:23;254.32;;;122.13;;
61385;SDS011;47256;18.904;-99.054;2024-03-07T13:48:50;285.95;;;144.63;;
61385;SDS011;47256;18.904;-99.054;2024-03-07T13:51:18;387.52;;;189.20;;
61385;SDS011;47256;18.904;-99.054;2024-03-07T13:53:46;366.52;;;186.18;;
61385;SDS011;47256;18.904;-99.054;2024-03-07T13:56:28;478.92;;;253.80;;
61385;SDS011;47256;18.904;-99.054;2024-03-07T14:04:52;491.33;;;268.13;;
61385;SDS011;47256;18.904;-99.054;2024-03-07T14:24:55;225.40;;;98.97;;
61385;SDS011;47256;18.904;-99.054;2024-03-07T14:33:20;80.53;;;32.05;;
61385;SDS011;47256;18.904;-99.054;2024-03-07T14:38:51;61.95;;;21.30;;
61385;SDS011;47256;18.904;-99.054;2024-03-07T14:41:37;51.50;;;19.42;;
61385;SDS011;47256;18.904;-99.054;2024-03-07T14:44:16;49.25;;;20.08;;
61385;SDS011;47256;18.904;-99.054;2024-03-07T14:46:44;35.13;;;19.63;;
61385;SDS011;47256;18.904;-99.054;2024-03-07T14:49:14;31.73;;;13.63;;
61385;SDS011;47256;18.904;-99.054;2024-03-07T14:51:44;30.23;;;12.88;;
61385;SDS011;47256;18.904;-99.054;2024-03-07T14:54:13;36.60;;;14.73;;
61385;SDS011;47256;18.904;-99.054;2024-03-07T14:56:41;45.60;;;16.80;;
61385;SDS011;47256;18.904;-99.054;2024-03-07T14:59:08;29.98;;;13.98;;